createdAt,value
2017-07-12T00:00:36.753Z,17.31
2017-07-12T00:03:02.617Z,17.32
2017-07-12T00:05:28.497Z,17.32
2017-07-12T00:07:54.378Z,17.32
2017-07-12T00:10:20.276Z,17.28
2017-07-12T00:12:46.213Z,17.28
2017-07-12T00:15:12.129Z,17.28
2017-07-12T00:17:37.996Z,17.22
2017-07-12T00:20:03.871Z,17.29
2017-07-12T00:22:29.858Z,17.46
2017-07-12T00:24:55.697Z,17.55
2017-07-12T00:27:21.658Z,17.62
2017-07-12T00:29:47.545Z,17.58
2017-07-12T00:34:55.314Z,17.60
2017-07-12T00:37:21.169Z,17.63
2017-07-12T00:39:47.114Z,17.63
2017-07-12T00:42:12.990Z,17.63
2017-07-12T00:44:38.984Z,17.73
2017-07-12T00:47:04.849Z,17.69
2017-07-12T00:49:30.723Z,17.74
2017-07-12T00:51:56.607Z,17.69
2017-07-12T00:54:22.470Z,17.62
2017-07-12T00:56:48.389Z,17.78
2017-07-12T00:59:14.261Z,17.75
2017-07-12T01:01:40.107Z,17.71
2017-07-12T01:04:05.982Z,17.70
2017-07-12T01:06:31.821Z,17.81
2017-07-12T01:08:57.767Z,17.79
2017-07-12T01:11:23.606Z,17.87
2017-07-12T01:13:49.507Z,17.83
2017-07-12T01:16:15.409Z,17.85
2017-07-12T01:18:41.249Z,17.75
2017-07-12T01:21:07.101Z,17.79
2017-07-12T01:23:33.181Z,17.95
2017-07-12T01:25:59.097Z,17.87
2017-07-12T01:28:24.937Z,17.83
2017-07-12T01:30:50.821Z,17.73
2017-07-12T01:33:16.760Z,17.74
2017-07-12T01:35:42.632Z,17.81
2017-07-12T01:38:08.473Z,17.80
2017-07-12T01:40:34.290Z,17.92
2017-07-12T01:43:00.261Z,17.81
2017-07-12T01:45:26.171Z,17.71
2017-07-12T01:47:52.086Z,17.69
2017-07-12T01:50:17.900Z,17.87
2017-07-12T01:52:43.774Z,17.85
2017-07-12T01:55:09.799Z,17.89
2017-07-12T01:57:35.657Z,17.85
2017-07-12T02:00:01.568Z,17.79
2017-07-12T02:02:27.429Z,17.82
2017-07-12T02:04:53.287Z,17.88
2017-07-12T02:07:19.303Z,17.86
2017-07-12T02:09:45.128Z,17.86
2017-07-12T02:12:10.976Z,17.83
2017-07-12T02:14:36.917Z,17.84
2017-07-12T02:17:02.752Z,17.88
2017-07-12T02:19:28.637Z,17.84
2017-07-12T02:21:54.632Z,17.85
2017-07-12T02:24:20.462Z,17.84
2017-07-12T02:26:46.448Z,17.72
2017-07-12T02:29:12.487Z,17.77
2017-07-12T02:31:38.326Z,17.69
2017-07-12T02:34:04.280Z,17.69
2017-07-12T02:36:30.129Z,17.89
2017-07-12T02:38:56.000Z,17.61
2017-07-12T02:41:21.929Z,17.61
2017-07-12T02:43:47.755Z,17.67
2017-07-12T02:46:13.625Z,17.72
2017-07-12T02:48:39.476Z,17.70
2017-07-12T02:51:05.480Z,17.72
2017-07-12T02:53:31.334Z,17.66
2017-07-12T02:55:57.242Z,17.80
2017-07-12T02:58:23.069Z,17.63
2017-07-12T03:00:48.944Z,17.47
2017-07-12T03:03:14.780Z,17.69
2017-07-12T03:05:40.634Z,17.72
2017-07-12T03:08:06.605Z,17.73
2017-07-12T03:10:32.445Z,17.70
2017-07-12T03:12:58.396Z,17.63
2017-07-12T03:15:24.272Z,17.59
2017-07-12T03:17:50.096Z,17.71
2017-07-12T03:20:15.946Z,17.71
2017-07-12T03:22:41.912Z,17.58
2017-07-12T03:25:07.749Z,17.60
2017-07-12T03:27:33.641Z,17.64
2017-07-12T03:29:59.522Z,17.51
2017-07-12T03:32:25.327Z,17.68
2017-07-12T03:34:51.185Z,17.64
2017-07-12T03:37:16.978Z,17.71
2017-07-12T03:39:54.041Z,17.67
2017-07-12T03:42:19.854Z,17.72
2017-07-12T03:44:45.719Z,17.65
2017-07-12T03:47:11.951Z,17.11
2017-07-12T03:49:37.750Z,17.75
2017-07-12T03:52:03.549Z,17.71
2017-07-12T03:54:29.423Z,17.70
2017-07-12T03:56:55.253Z,17.70
2017-07-12T03:59:21.078Z,17.72
2017-07-12T04:01:46.950Z,17.78
2017-07-12T04:04:12.855Z,17.70
2017-07-12T04:06:38.681Z,17.72
2017-07-12T04:09:04.462Z,17.62
2017-07-12T04:11:30.393Z,17.37
2017-07-12T04:13:56.342Z,17.68
2017-07-12T04:16:22.255Z,17.79
2017-07-12T04:18:48.182Z,17.68
2017-07-12T04:21:14.062Z,17.71
2017-07-12T04:23:39.906Z,17.69
2017-07-12T04:26:05.691Z,17.91
2017-07-12T04:28:31.477Z,17.80
2017-07-12T04:30:57.310Z,17.72
2017-07-12T04:33:23.089Z,17.60
2017-07-12T04:35:48.983Z,17.49
2017-07-12T04:38:14.821Z,17.76
2017-07-12T04:40:40.731Z,17.84
2017-07-12T04:43:06.662Z,17.86
2017-07-12T04:45:32.562Z,17.90
2017-07-12T04:47:58.523Z,18.00
2017-07-12T04:50:24.411Z,17.92
2017-07-12T04:52:50.307Z,18.07
2017-07-12T04:55:16.164Z,18.10
2017-07-12T04:57:42.107Z,18.15
2017-07-12T05:00:07.948Z,18.30
2017-07-12T05:02:33.738Z,18.27
2017-07-12T05:04:59.525Z,18.10
2017-07-12T05:07:25.379Z,18.20
2017-07-12T05:09:51.180Z,18.31
2017-07-12T05:12:17.030Z,18.34
2017-07-12T05:14:42.846Z,18.47
2017-07-12T05:17:08.682Z,18.64
2017-07-12T05:19:34.532Z,18.48
2017-07-12T05:22:00.576Z,18.64
2017-07-12T05:24:26.497Z,18.80
2017-07-12T05:26:52.340Z,19.00
2017-07-12T05:29:18.226Z,18.86
2017-07-12T05:31:44.038Z,18.72
2017-07-12T05:34:09.846Z,18.76
2017-07-12T05:36:35.693Z,18.94
2017-07-12T05:39:01.605Z,18.87
2017-07-12T05:41:27.411Z,19.01
2017-07-12T05:43:53.254Z,18.99
2017-07-12T05:46:19.106Z,19.03
2017-07-12T05:48:44.894Z,18.91
2017-07-12T05:51:10.697Z,18.81
2017-07-12T05:53:37.359Z,18.96
2017-07-12T05:56:03.150Z,18.94
2017-07-12T05:58:29.070Z,18.91
2017-07-12T06:00:55.118Z,18.96
2017-07-12T06:03:20.921Z,18.97
2017-07-12T06:05:46.766Z,18.99
2017-07-12T06:08:12.601Z,19.11
2017-07-12T06:10:38.560Z,19.20
2017-07-12T06:13:04.422Z,19.27
2017-07-12T06:15:30.297Z,19.38
2017-07-12T06:17:56.137Z,19.46
2017-07-12T06:20:22.227Z,19.47
2017-07-12T06:22:48.034Z,19.46
2017-07-12T06:25:13.880Z,19.57
2017-07-12T06:27:39.726Z,19.68
2017-07-12T06:30:05.935Z,19.75
2017-07-12T06:32:31.939Z,19.84
2017-07-12T06:34:57.738Z,19.89
2017-07-12T06:37:23.563Z,19.94
2017-07-12T06:39:49.367Z,19.88
2017-07-12T06:42:15.201Z,19.94
2017-07-12T06:44:41.000Z,19.92
2017-07-12T06:47:06.842Z,19.88
2017-07-12T06:49:32.689Z,19.93
2017-07-12T06:51:58.501Z,19.96
2017-07-12T06:54:24.334Z,20.05
2017-07-12T06:56:51.150Z,20.22
2017-07-12T06:59:16.942Z,20.24
2017-07-12T07:01:43.555Z,20.03
2017-07-12T07:04:09.386Z,20.11
2017-07-12T07:06:35.178Z,19.89
2017-07-12T07:09:01.110Z,19.86
2017-07-12T07:11:27.007Z,19.86
2017-07-12T07:13:52.869Z,19.70
2017-07-12T07:16:18.765Z,19.87
2017-07-12T07:18:44.689Z,19.87
2017-07-12T07:21:10.473Z,19.75
2017-07-12T07:23:36.378Z,19.70
2017-07-12T07:26:02.211Z,19.89
2017-07-12T07:28:28.030Z,19.90
2017-07-12T07:30:54.053Z,19.93
2017-07-12T07:33:19.911Z,19.87
2017-07-12T07:35:45.810Z,19.97
2017-07-12T07:38:11.698Z,19.88
2017-07-12T07:40:37.542Z,20.24
2017-07-12T07:43:03.338Z,20.49
2017-07-12T07:45:29.191Z,20.74
2017-07-12T07:47:55.047Z,21.01
2017-07-12T07:50:20.961Z,20.96
2017-07-12T07:52:46.746Z,20.92
2017-07-12T07:55:12.554Z,20.73
2017-07-12T07:57:45.268Z,21.31
2017-07-12T08:00:11.160Z,21.24
2017-07-12T08:02:37.000Z,21.16
2017-07-12T08:05:02.808Z,21.15
2017-07-12T08:07:28.644Z,21.35
2017-07-12T08:09:54.518Z,21.08
2017-07-12T08:12:20.319Z,21.02
2017-07-12T08:14:46.199Z,21.15
2017-07-12T08:17:12.087Z,21.03
2017-07-12T08:19:37.978Z,20.87
2017-07-12T08:22:03.826Z,20.74
2017-07-12T08:24:29.630Z,20.70
2017-07-12T08:26:55.491Z,20.71
2017-07-12T08:29:21.405Z,20.83
2017-07-12T08:31:47.217Z,20.72
2017-07-12T08:34:13.158Z,21.11
2017-07-12T08:36:39.151Z,21.35
2017-07-12T08:39:05.137Z,21.93
2017-07-12T08:41:31.017Z,22.32
2017-07-12T08:43:56.923Z,22.57
2017-07-12T08:46:22.830Z,22.02
2017-07-12T08:48:48.676Z,21.99
2017-07-12T08:51:14.641Z,22.00
2017-07-12T08:53:40.485Z,22.75
2017-07-12T08:56:07.277Z,22.56
2017-07-12T08:58:33.125Z,22.62
2017-07-12T09:00:58.910Z,22.95
2017-07-12T09:03:24.690Z,22.70
2017-07-12T09:05:50.542Z,22.87
2017-07-12T09:08:16.359Z,22.85
2017-07-12T09:10:42.281Z,23.04
2017-07-12T09:13:08.182Z,23.02
2017-07-12T09:15:34.010Z,23.09
2017-07-12T09:17:59.864Z,22.53
2017-07-12T09:20:25.747Z,22.70
2017-07-12T09:22:51.648Z,22.52
2017-07-12T09:35:00.755Z,21.59
2017-07-12T09:37:26.655Z,21.35
2017-07-12T09:39:52.528Z,21.20
2017-07-12T09:42:18.427Z,20.99
2017-07-12T09:44:45.062Z,20.89
2017-07-12T09:47:10.903Z,20.78
2017-07-12T09:49:36.746Z,20.75
2017-07-12T09:52:02.603Z,20.83
2017-07-12T09:54:28.423Z,20.73
2017-07-12T09:56:54.234Z,20.67
2017-07-12T09:59:20.263Z,20.65
2017-07-12T10:01:46.122Z,20.77
2017-07-12T10:04:12.010Z,20.73
2017-07-12T10:06:37.867Z,20.78
2017-07-12T10:09:03.717Z,20.78
2017-07-12T10:11:29.526Z,20.72
2017-07-12T10:13:55.375Z,20.61
2017-07-12T10:16:21.404Z,20.64
2017-07-12T10:18:47.242Z,20.74
2017-07-12T10:21:13.084Z,20.91
2017-07-12T10:23:38.967Z,20.92
2017-07-12T10:26:04.913Z,20.96
2017-07-12T10:28:30.829Z,20.88
2017-07-12T10:30:56.643Z,21.00
2017-07-12T10:33:22.486Z,21.17
2017-07-12T10:35:48.354Z,21.16
2017-07-12T10:38:14.193Z,21.16
2017-07-12T10:40:40.179Z,21.49
2017-07-12T10:43:05.988Z,21.41
2017-07-12T10:45:31.840Z,21.19
2017-07-12T10:47:57.636Z,20.96
2017-07-12T10:50:23.474Z,20.89
2017-07-12T10:52:49.311Z,20.64
2017-07-12T10:55:15.232Z,20.71
2017-07-12T10:57:41.035Z,20.68
2017-07-12T11:00:06.922Z,20.51
2017-07-12T11:02:32.718Z,20.12
2017-07-12T11:04:58.514Z,19.76
2017-07-12T11:07:24.346Z,20.01
2017-07-12T11:09:50.174Z,20.22
2017-07-12T11:12:15.978Z,20.29
2017-07-12T11:14:41.844Z,20.35
2017-07-12T11:17:07.637Z,20.57
2017-07-12T11:19:33.472Z,20.94
2017-07-12T11:21:59.302Z,20.85
2017-07-12T11:24:25.119Z,20.68
2017-07-12T11:26:50.966Z,20.60
2017-07-12T11:29:16.966Z,20.48
2017-07-12T11:31:42.769Z,20.56
2017-07-12T11:34:08.602Z,20.69
2017-07-12T11:36:34.435Z,20.56
2017-07-12T11:39:00.446Z,20.33
2017-07-12T11:41:26.300Z,20.39
2017-07-12T11:43:52.186Z,20.70
2017-07-12T11:46:18.102Z,20.84
2017-07-12T11:48:59.031Z,20.67
2017-07-12T11:51:24.893Z,20.53
2017-07-12T11:53:50.714Z,20.49
2017-07-12T11:56:16.526Z,19.97
2017-07-12T11:58:42.351Z,19.53
2017-07-12T12:01:08.246Z,19.27
2017-07-12T12:03:34.102Z,19.03
2017-07-12T12:05:59.940Z,18.78
2017-07-12T12:08:25.789Z,18.78
2017-07-12T12:10:51.654Z,18.75
2017-07-12T12:13:17.473Z,18.74
2017-07-12T12:15:43.537Z,18.76
2017-07-12T12:18:09.535Z,18.80
2017-07-12T12:20:35.353Z,18.79
2017-07-12T12:23:01.185Z,18.86
2017-07-12T12:25:27.182Z,18.95
2017-07-12T12:27:53.201Z,18.83
2017-07-12T12:30:19.041Z,18.86
2017-07-12T12:32:44.830Z,18.76
2017-07-12T12:35:10.858Z,18.78
2017-07-12T12:37:36.926Z,19.15
2017-07-12T12:40:02.903Z,19.20
2017-07-12T12:42:28.750Z,19.29
2017-07-12T12:44:54.630Z,19.44
2017-07-12T12:47:20.507Z,19.59
2017-07-12T12:49:46.452Z,19.67
2017-07-12T12:52:12.371Z,19.74
2017-07-12T12:54:38.208Z,19.72
2017-07-12T12:57:04.051Z,19.74
2017-07-12T12:59:29.889Z,19.84
2017-07-12T13:01:55.680Z,20.09
2017-07-12T13:04:27.474Z,20.25
2017-07-12T13:06:53.511Z,20.36
2017-07-12T13:09:19.410Z,20.52
2017-07-12T13:11:45.217Z,20.59
2017-07-12T13:14:11.080Z,20.61
2017-07-12T13:16:36.904Z,20.55
2017-07-12T13:19:02.754Z,20.63
2017-07-12T13:21:28.578Z,20.43
2017-07-12T13:23:54.404Z,20.42
2017-07-12T13:26:20.226Z,20.42
2017-07-12T13:28:46.057Z,20.39
2017-07-12T13:31:12.951Z,20.25
2017-07-12T13:33:38.834Z,20.07
2017-07-12T13:36:04.728Z,20.00
2017-07-12T13:38:30.846Z,19.98
2017-07-12T13:40:56.669Z,19.75
2017-07-12T13:43:22.592Z,19.80
2017-07-12T13:45:48.418Z,19.81
2017-07-12T13:48:14.263Z,19.65
2017-07-12T13:50:40.170Z,19.70
2017-07-12T13:53:05.999Z,19.81
2017-07-12T13:55:31.844Z,19.44
2017-07-12T13:57:57.638Z,19.48
2017-07-12T14:00:23.452Z,19.65
2017-07-12T14:02:49.387Z,19.79
2017-07-12T14:05:15.315Z,19.95
2017-07-12T14:07:41.189Z,19.92
2017-07-12T14:10:07.034Z,20.01
2017-07-12T14:12:33.017Z,20.00
2017-07-12T14:14:58.932Z,20.11
2017-07-12T14:17:24.847Z,20.47
2017-07-12T14:19:50.725Z,21.15
2017-07-12T14:22:16.649Z,21.79
2017-07-12T14:24:42.529Z,21.99
2017-07-12T14:27:08.555Z,22.70
2017-07-12T14:29:34.825Z,22.41
2017-07-12T14:32:00.834Z,22.87
2017-07-12T14:34:26.740Z,23.15
2017-07-12T14:36:52.585Z,22.80
2017-07-12T14:39:18.451Z,22.75
2017-07-12T14:41:44.274Z,23.06
2017-07-12T14:44:10.101Z,22.89
2017-07-12T14:46:35.963Z,23.34
2017-07-12T14:49:01.790Z,23.63
2017-07-12T14:51:27.602Z,23.03
2017-07-12T14:53:53.599Z,23.47
2017-07-12T14:56:19.447Z,23.01
2017-07-12T14:58:45.440Z,23.06
2017-07-12T15:01:11.272Z,23.02
2017-07-12T15:03:37.218Z,23.08
2017-07-12T15:06:03.093Z,23.16
2017-07-12T15:08:29.107Z,22.73
2017-07-12T15:10:55.174Z,22.70
2017-07-12T15:13:20.990Z,23.56
2017-07-12T15:15:46.906Z,22.95
2017-07-12T15:18:12.761Z,22.57
2017-07-12T15:20:38.607Z,22.31
2017-07-12T15:23:04.471Z,22.17
2017-07-12T15:25:30.374Z,22.17
2017-07-12T15:27:56.184Z,22.07
2017-07-12T15:30:22.081Z,21.72
2017-07-12T15:32:48.117Z,21.91
2017-07-12T15:35:13.943Z,22.04
2017-07-12T15:37:40.175Z,21.99
2017-07-12T15:40:05.993Z,22.06
2017-07-12T15:42:31.788Z,22.17
2017-07-12T15:44:57.686Z,21.98
2017-07-12T15:47:23.477Z,22.02
2017-07-12T15:49:49.295Z,21.94
2017-07-12T15:52:15.122Z,21.68
2017-07-12T15:54:41.054Z,21.37
2017-07-12T15:57:06.900Z,21.18
2017-07-12T15:59:32.767Z,21.03
2017-07-12T16:01:58.596Z,20.94
2017-07-12T16:04:24.741Z,20.57
2017-07-12T16:06:50.601Z,20.26
2017-07-12T16:09:16.410Z,20.09
2017-07-12T16:11:42.268Z,19.68
2017-07-12T16:14:08.094Z,19.54
2017-07-12T16:16:34.113Z,19.47
2017-07-12T16:19:00.020Z,19.53
2017-07-12T16:21:25.869Z,19.51
2017-07-12T16:23:51.781Z,19.74
2017-07-12T16:26:17.617Z,19.83
2017-07-12T16:28:43.583Z,19.72
2017-07-12T16:31:09.442Z,19.81
2017-07-12T16:33:35.408Z,19.58
2017-07-12T16:36:01.222Z,19.94
2017-07-12T16:38:27.072Z,19.95
2017-07-12T16:40:52.968Z,20.33
2017-07-12T16:43:18.827Z,20.75
2017-07-12T16:45:44.754Z,20.81
2017-07-12T16:48:10.706Z,20.99
2017-07-12T16:50:36.519Z,20.96
2017-07-12T16:53:02.357Z,20.46
2017-07-12T16:55:28.207Z,20.54
2017-07-12T16:57:54.021Z,20.34
2017-07-12T17:00:19.851Z,20.13
2017-07-12T17:02:45.707Z,20.04
2017-07-12T17:05:11.601Z,19.93
2017-07-12T17:07:37.412Z,19.60
2017-07-12T17:10:03.265Z,19.74
2017-07-12T17:12:29.066Z,19.63
2017-07-12T17:14:54.979Z,19.31
2017-07-12T17:17:21.001Z,19.15
2017-07-12T17:19:46.922Z,18.95
2017-07-12T17:22:12.827Z,18.73
2017-07-12T17:24:38.663Z,18.74
2017-07-12T17:27:04.579Z,18.49
2017-07-12T17:29:30.370Z,18.41
2017-07-12T17:31:56.214Z,18.60
2017-07-12T17:34:22.027Z,18.59
2017-07-12T17:36:47.929Z,18.75
2017-07-12T17:39:13.773Z,18.81
2017-07-12T17:41:39.708Z,19.00
2017-07-12T17:44:05.555Z,18.86
2017-07-12T17:46:31.346Z,18.80
2017-07-12T17:48:57.162Z,18.69
2017-07-12T17:51:22.991Z,18.62
2017-07-12T17:53:48.900Z,18.60
2017-07-12T17:56:14.728Z,18.79
2017-07-12T17:58:40.631Z,18.84
2017-07-12T18:01:06.447Z,18.78
2017-07-12T18:03:32.305Z,18.74
2017-07-12T18:05:58.119Z,18.78
2017-07-12T18:08:23.974Z,18.68
2017-07-12T18:10:49.815Z,18.65
2017-07-12T18:13:15.642Z,18.60
2017-07-12T18:15:41.597Z,18.62
2017-07-12T18:18:07.409Z,18.58
2017-07-12T18:20:33.193Z,18.37
2017-07-12T18:22:59.018Z,18.38
2017-07-12T18:25:24.822Z,18.35
2017-07-12T18:27:51.038Z,18.44
2017-07-12T18:30:16.878Z,18.46
2017-07-12T18:32:43.521Z,18.43
2017-07-12T18:35:09.372Z,18.29
2017-07-12T18:37:35.208Z,18.32
2017-07-12T18:40:01.018Z,18.36
2017-07-12T18:42:26.874Z,18.44
2017-07-12T18:44:52.686Z,18.42
2017-07-12T18:47:18.505Z,18.33
2017-07-12T18:49:44.369Z,18.35
2017-07-12T18:52:10.354Z,18.39
2017-07-12T18:54:36.161Z,18.20
2017-07-12T18:57:01.981Z,18.20
2017-07-12T18:59:27.786Z,18.24
2017-07-12T19:01:53.589Z,18.21
2017-07-12T19:04:19.479Z,18.24
2017-07-12T19:06:45.458Z,18.21
2017-07-12T19:09:11.257Z,18.21
2017-07-12T19:11:37.109Z,18.11
2017-07-12T19:14:03.118Z,18.24
2017-07-12T19:16:28.966Z,18.15
2017-07-12T19:18:54.817Z,18.11
2017-07-12T19:21:20.802Z,18.09
2017-07-12T19:23:46.597Z,18.12
2017-07-12T19:26:12.456Z,18.06
2017-07-12T19:28:38.461Z,18.14
2017-07-12T19:31:04.254Z,18.14
2017-07-12T19:33:30.131Z,18.08
2017-07-12T19:35:55.958Z,18.14
2017-07-12T19:38:21.880Z,18.13
2017-07-12T19:40:47.809Z,18.10
2017-07-12T19:43:13.707Z,18.07
2017-07-12T19:45:39.578Z,18.09
2017-07-12T19:48:05.393Z,18.18
2017-07-12T19:50:31.229Z,18.14
2017-07-12T19:52:57.112Z,18.00
2017-07-12T19:55:23.025Z,17.82
2017-07-12T19:57:48.921Z,17.93
2017-07-12T20:00:14.853Z,17.91
2017-07-12T20:02:40.762Z,17.86
2017-07-12T20:05:06.717Z,17.77
2017-07-12T20:07:32.605Z,17.56
2017-07-12T20:09:58.594Z,17.72
2017-07-12T20:12:24.460Z,17.62
2017-07-12T20:14:50.797Z,17.74
2017-07-12T20:17:16.648Z,17.73
2017-07-12T20:19:42.533Z,17.70
2017-07-12T20:22:08.539Z,17.69
2017-07-12T20:24:34.468Z,17.49
2017-07-12T20:27:00.375Z,17.38
2017-07-12T20:29:26.340Z,17.50
2017-07-12T20:31:52.189Z,17.08
2017-07-12T20:34:18.064Z,17.47
2017-07-12T20:36:43.973Z,17.29
2017-07-12T20:39:09.812Z,17.25
2017-07-12T20:41:35.686Z,17.31
2017-07-12T20:44:01.528Z,17.28
2017-07-12T20:46:27.397Z,17.35
2017-07-12T20:48:53.308Z,17.39
2017-07-12T20:51:19.236Z,17.24
2017-07-12T20:53:45.130Z,17.21
2017-07-12T20:56:10.980Z,17.28
2017-07-12T20:58:37.086Z,17.29
2017-07-12T21:01:02.987Z,17.24
2017-07-12T21:03:28.856Z,17.20
2017-07-12T21:05:54.714Z,17.29
2017-07-12T21:08:20.725Z,17.34
2017-07-12T21:10:46.736Z,17.26
2017-07-12T21:13:12.773Z,17.29
2017-07-12T21:15:38.696Z,17.21
2017-07-12T21:18:04.668Z,17.18
2017-07-12T21:20:30.693Z,17.16
2017-07-12T21:22:56.616Z,17.01
2017-07-12T21:25:22.487Z,17.11
2017-07-12T21:27:48.425Z,17.09
2017-07-12T21:30:14.273Z,17.08
2017-07-12T21:32:40.141Z,16.83
2017-07-12T21:35:06.084Z,16.84
2017-07-12T21:37:31.970Z,16.81
2017-07-12T21:39:57.815Z,16.76
2017-07-12T21:42:23.741Z,16.47
2017-07-12T21:44:49.621Z,16.37
2017-07-12T21:47:15.488Z,16.42
2017-07-12T21:49:41.508Z,16.32
2017-07-12T21:52:07.421Z,16.32
2017-07-12T21:54:51.729Z,16.02
2017-07-12T21:57:36.052Z,16.19
2017-07-12T22:00:20.577Z,16.08
2017-07-12T22:03:05.019Z,15.80
2017-07-12T22:05:49.279Z,15.78
2017-07-12T22:08:33.617Z,15.83
2017-07-12T22:11:18.016Z,15.80
2017-07-12T22:14:02.453Z,15.70
2017-07-12T22:16:46.721Z,15.65
2017-07-12T22:19:30.935Z,15.52
2017-07-12T22:22:15.403Z,15.50
2017-07-12T22:24:59.676Z,15.49
2017-07-12T22:27:44.111Z,15.57
2017-07-12T22:30:28.411Z,15.65
2017-07-12T22:33:12.817Z,15.63
2017-07-12T22:35:57.016Z,15.68
2017-07-12T22:38:29.024Z,15.61
2017-07-12T22:41:00.895Z,15.69
2017-07-12T22:43:30.684Z,15.74
2017-07-12T22:45:56.600Z,15.82
2017-07-12T22:48:22.423Z,15.71
2017-07-12T22:50:48.257Z,15.90
2017-07-12T22:53:14.212Z,15.79
2017-07-12T22:55:40.045Z,15.77
2017-07-12T22:58:06.859Z,15.86
2017-07-12T23:00:32.907Z,15.78
2017-07-12T23:02:58.762Z,15.73
2017-07-12T23:05:24.765Z,15.69
2017-07-12T23:07:50.814Z,15.63
2017-07-12T23:10:16.689Z,15.80
2017-07-12T23:12:42.562Z,15.54
2017-07-12T23:15:08.389Z,15.57
2017-07-12T23:17:34.332Z,15.53
2017-07-12T23:20:00.155Z,15.47
2017-07-12T23:22:26.029Z,15.40
2017-07-12T23:24:51.960Z,15.42
2017-07-12T23:27:17.813Z,15.35
2017-07-12T23:29:43.669Z,15.51
2017-07-12T23:32:09.510Z,15.33
2017-07-12T23:34:35.494Z,15.34
2017-07-12T23:37:01.347Z,15.17
2017-07-12T23:39:33.276Z,15.08
2017-07-12T23:41:59.190Z,15.20
2017-07-12T23:44:25.093Z,15.08
2017-07-12T23:46:57.849Z,14.95
2017-07-12T23:49:23.741Z,14.94
2017-07-12T23:51:49.616Z,15.05
2017-07-12T23:54:15.515Z,15.00
2017-07-12T23:56:41.461Z,15.04
2017-07-12T23:59:07.348Z,15.02
